Time;durP1;ratioP1;P1;durP2;ratioP2;P2;SDS_P1;SDS_P2;PMS_P1;PMS_P2;Temp;Humidity;BMP_temperature;BMP_pressure;BME280_temperature;BME280_humidity;BME280_pressure;Samples;Min_cycle;Max_cycle;Signal;HPM_P1;HPM_P2
2020/12/11 10:26:59;;;;;;;2.80;1.27;;;5.60;99.90;;;;;;4763122;23;20263;-79
2020/12/11 10:29:25;;;;;;;4.73;1.10;;;5.60;99.90;;;;;;4956108;28;20211;-70
2020/12/11 10:31:51;;;;;;;3.17;1.00;;;5.70;99.90;;;;;;4956528;28;20208;-70
2020/12/11 10:34:19;;;;;;;1.80;1.27;;;5.70;99.90;;;;;;4955725;28;20224;-72
2020/12/11 10:36:45;;;;;;;4.83;1.40;;;5.70;99.90;;;;;;4955202;28;20236;-76
2020/12/11 10:39:12;;;;;;;6.03;1.57;;;5.80;99.90;;;;;;4956325;29;20575;-74
2020/12/11 10:41:38;;;;;;;5.70;1.60;;;5.80;99.90;;;;;;4956296;29;20208;-71
2020/12/11 10:44:06;;;;;;;2.93;1.43;;;5.90;99.90;;;;;;4956079;28;20228;-70
2020/12/11 10:46:32;;;;;;;2.20;1.20;;;5.90;99.90;;;;;;4956119;28;20675;-78
2020/12/11 10:48:58;;;;;;;2.43;1.30;;;6.00;99.90;;;;;;4955859;29;20208;-79
2020/12/11 10:51:24;;;;;;;1.57;1.20;;;6.00;99.90;;;;;;4955948;29;20659;-79
2020/12/11 10:53:51;;;;;;;1.83;1.00;;;6.10;99.90;;;;;;4955815;29;20755;-72
2020/12/11 10:56:19;;;;;;;2.10;1.10;;;5.90;99.90;;;;;;4955903;29;20243;-70
2020/12/11 10:58:46;;;;;;;2.87;1.20;;;6.00;99.90;;;;;;4956251;29;20212;-78
2020/12/11 11:01:13;;;;;;;1.93;1.03;;;6.00;99.90;;;;;;4955883;29;20227;-79
2020/12/11 11:03:40;;;;;;;1.93;1.00;;;5.90;99.90;;;;;;4955892;29;20228;-71
2020/12/11 11:06:12;;;;;;;3.03;1.40;;;5.90;99.90;;;;;;4955650;29;20674;-73
2020/12/11 11:08:45;;;;;;;2.23;1.20;;;5.90;99.90;;;;;;4955911;28;20287;-72
2020/12/11 11:11:11;;;;;;;1.90;0.93;;;5.80;99.90;;;;;;4955813;29;20204;-70
2020/12/11 11:13:54;;;;;;;1.40;1.10;;;5.90;99.90;;;;;;4955629;29;20224;-77
2020/12/11 11:16:38;;;;;;;5.10;1.50;;;5.90;99.90;;;;;;4955566;29;20242;-71
2020/12/11 11:19:10;;;;;;;2.57;1.57;;;6.00;99.90;;;;;;4955610;28;20235;-75
2020/12/11 11:21:59;;;;;;;2.17;1.20;;;6.10;99.90;;;;;;4955460;28;20212;-77
2020/12/11 11:24:43;;;;;;;1.60;0.87;;;6.20;99.90;;;;;;4955601;28;20234;-70
2020/12/11 11:27:17;;;;;;;1.83;1.00;;;6.20;99.90;;;;;;4955385;29;20282;-77
2020/12/11 11:29:43;;;;;;;1.43;1.00;;;6.20;99.90;;;;;;4955301;28;20211;-71
2020/12/11 11:32:10;;;;;;;1.20;0.80;;;6.30;99.90;;;;;;4955099;28;20212;-70
2020/12/11 11:34:37;;;;;;;1.67;0.83;;;6.40;99.90;;;;;;4954997;29;20228;-73
2020/12/11 11:37:04;;;;;;;3.33;1.30;;;6.50;99.90;;;;;;4955013;28;20246;-71
2020/12/11 11:39:30;;;;;;;1.90;1.00;;;6.60;99.90;;;;;;4954643;29;20630;-71
2020/12/11 11:41:57;;;;;;;2.20;1.20;;;6.80;99.90;;;;;;4954584;29;20663;-71
2020/12/11 11:44:38;;;;;;;2.73;1.10;;;6.70;99.90;;;;;;4955154;29;20344;-71
2020/12/11 11:47:08;;;;;;;2.00;1.00;;;6.60;99.90;;;;;;4953911;28;20211;-70
2020/12/11 11:49:39;;;;;;;1.37;0.90;;;6.60;99.90;;;;;;4951763;28;20215;-72
2020/12/11 11:52:15;;;;;;;1.97;1.00;;;6.70;99.90;;;;;;4954046;28;20607;-76
2020/12/11 11:54:41;;;;;;;1.77;0.90;;;6.70;99.90;;;;;;4954932;29;20281;-72
2020/12/11 11:57:08;;;;;;;1.93;1.00;;;6.80;99.90;;;;;;4954853;28;20232;-71
2020/12/11 11:59:34;;;;;;;2.40;0.90;;;6.80;99.90;;;;;;4954832;29;20227;-70
2020/12/11 12:02:00;;;;;;;2.37;1.20;;;6.80;99.90;;;;;;4954816;28;20214;-71
2020/12/11 12:04:26;;;;;;;1.10;0.63;;;7.00;99.90;;;;;;4954580;28;20583;-70
2020/12/11 12:06:55;;;;;;;1.93;1.10;;;7.00;99.90;;;;;;4954719;29;20283;-70
2020/12/11 12:09:21;;;;;;;1.20;0.90;;;6.90;99.90;;;;;;4954583;28;20207;-70
2020/12/11 12:11:48;;;;;;;1.27;0.80;;;7.00;99.90;;;;;;4954794;29;20237;-70
2020/12/11 12:14:14;;;;;;;2.60;1.10;;;7.00;99.90;;;;;;4954453;29;20388;-70
2020/12/11 12:16:42;;;;;;;1.93;1.00;;;6.90;99.90;;;;;;4954596;29;20239;-77
2020/12/11 12:19:12;;;;;;;1.50;0.97;;;6.90;99.90;;;;;;4954715;29;20230;-78
2020/12/11 12:21:54;;;;;;;0.93;0.70;;;6.70;99.90;;;;;;4954681;28;20697;-70
2020/12/11 12:27:27;;;;;;;1.50;0.97;;;6.60;99.90;;;;;;4954704;29;20215;-78
2020/12/11 12:29:54;;;;;;;2.07;0.80;;;6.60;99.90;;;;;;4954822;29;20207;-71
2020/12/11 12:32:22;;;;;;;1.50;0.90;;;6.50;99.90;;;;;;4954849;29;20235;-72
2020/12/11 12:34:52;;;;;;;3.83;0.93;;;6.60;99.90;;;;;;4954643;29;20232;-70
2020/12/11 12:37:33;;;;;;;1.50;0.67;;;6.50;99.90;;;;;;4954528;28;20765;-70
2020/12/11 12:45:30;;;;;;;2.20;1.00;;;6.70;99.90;;;;;;4954420;29;20567;-71
2020/12/11 12:47:56;;;;;;;1.70;1.07;;;6.80;99.90;;;;;;4954893;28;20567;-70
2020/12/11 12:50:22;;;;;;;1.60;0.80;;;6.90;99.90;;;;;;4954640;28;20208;-78
2020/12/11 12:52:49;;;;;;;1.57;0.87;;;6.80;99.90;;;;;;4954436;29;20228;-71
2020/12/11 12:55:19;;;;;;;2.20;1.03;;;6.90;99.90;;;;;;4954821;28;20208;-69
2020/12/11 12:57:47;;;;;;;1.53;0.80;;;6.90;99.90;;;;;;4954247;28;20239;-73
2020/12/11 13:00:22;;;;;;;3.83;0.80;;;6.80;99.90;;;;;;4957736;29;20211;-70
2020/12/11 13:03:16;;;;;;;0.97;0.70;;;6.90;99.90;;;;;;4958126;28;20207;-70
2020/12/11 13:05:42;;;;;;;1.30;0.83;;;6.90;99.90;;;;;;4958094;29;20219;-75
2020/12/11 13:08:08;;;;;;;1.43;0.90;;;6.80;99.90;;;;;;4957801;29;20558;-70
2020/12/11 13:10:35;;;;;;;1.57;1.00;;;6.90;99.90;;;;;;4957695;28;20203;-79
2020/12/11 13:13:07;;;;;;;1.07;0.80;;;6.80;99.90;;;;;;4957836;29;20227;-70
2020/12/11 13:15:34;;;;;;;1.50;0.83;;;7.00;99.90;;;;;;4957730;28;20211;-70
2020/12/11 13:18:00;;;;;;;1.00;0.70;;;6.90;99.90;;;;;;4957610;29;20243;-71
2020/12/11 13:20:29;;;;;;;1.60;0.80;;;6.80;99.90;;;;;;4957675;28;20215;-69
2020/12/11 13:26:13;;;;;;;1.60;1.00;;;6.90;99.90;;;;;;4920560;28;20676;-70
2020/12/11 13:28:36;;;;;;;2.73;1.00;;;6.80;99.90;;;;;;4957246;29;20298;-78
2020/12/11 13:31:03;;;;;;;1.50;0.90;;;6.90;99.90;;;;;;4957348;29;20212;-71
2020/12/11 13:33:29;;;;;;;0.80;0.67;;;6.90;99.90;;;;;;4957207;29;20232;-70
2020/12/11 13:35:55;;;;;;;3.27;1.20;;;6.80;99.90;;;;;;4957541;29;20571;-69
2020/12/11 13:38:21;;;;;;;1.57;0.87;;;6.90;99.90;;;;;;4957456;29;20599;-69
2020/12/11 13:40:48;;;;;;;1.77;0.90;;;6.90;99.90;;;;;;4957406;28;20215;-70
2020/12/11 13:43:15;;;;;;;1.20;0.90;;;7.00;99.90;;;;;;4957099;28;20228;-69
2020/12/11 13:45:41;;;;;;;2.20;0.97;;;6.90;99.90;;;;;;4957207;28;20208;-70
2020/12/11 13:48:07;;;;;;;1.33;0.80;;;6.70;99.90;;;;;;4957037;29;20208;-76
2020/12/11 13:50:33;;;;;;;2.57;1.30;;;6.80;99.90;;;;;;4957446;29;20208;-69
2020/12/11 13:52:59;;;;;;;1.67;0.87;;;6.80;99.90;;;;;;4957114;29;20556;-70
2020/12/11 13:55:25;;;;;;;2.00;1.10;;;6.90;99.90;;;;;;4956977;28;20211;-70
2020/12/11 13:57:53;;;;;;;3.23;1.10;;;6.90;99.90;;;;;;4956698;28;20627;-70
2020/12/11 14:00:19;;;;;;;1.20;0.83;;;7.00;99.90;;;;;;4956593;29;20679;-70
2020/12/11 14:02:45;;;;;;;2.30;1.00;;;7.00;99.90;;;;;;4956435;29;20215;-70
2020/12/11 14:05:11;;;;;;;1.40;0.90;;;7.00;99.90;;;;;;4957162;28;20203;-69
2020/12/11 14:07:37;;;;;;;1.80;1.17;;;7.10;99.90;;;;;;4956918;29;20559;-73
2020/12/11 14:10:04;;;;;;;1.70;0.90;;;7.00;99.90;;;;;;4956743;28;20223;-70
2020/12/11 14:12:30;;;;;;;2.70;0.80;;;7.10;99.90;;;;;;4956360;29;20665;-69
2020/12/11 14:14:57;;;;;;;1.83;1.10;;;7.20;99.90;;;;;;4956321;28;20627;-77
2020/12/11 14:17:31;;;;;;;1.13;0.83;;;7.10;99.90;;;;;;4956285;29;20246;-70
2020/12/11 14:20:23;;;;;;;1.20;0.93;;;7.00;99.90;;;;;;4956404;28;20774;-72
2020/12/11 14:22:51;;;;;;;1.00;0.90;;;6.90;99.90;;;;;;4956490;29;20292;-70
2020/12/11 14:25:17;;;;;;;1.43;1.20;;;6.90;99.90;;;;;;4956408;29;20559;-70
2020/12/11 14:27:43;;;;;;;2.73;1.23;;;6.90;99.90;;;;;;4956220;28;20216;-70
2020/12/11 14:30:10;;;;;;;2.37;1.00;;;7.00;99.90;;;;;;4956203;29;20216;-69
2020/12/11 14:32:37;;;;;;;1.37;1.07;;;6.90;99.90;;;;;;4956441;29;20212;-78
2020/12/11 14:35:03;;;;;;;1.73;1.03;;;6.80;99.90;;;;;;4955991;29;20579;-70
2020/12/11 14:37:32;;;;;;;2.77;1.47;;;6.90;99.90;;;;;;4956565;29;20250;-69
2020/12/11 14:39:58;;;;;;;2.83;1.47;;;7.00;99.90;;;;;;4956319;28;20210;-70
2020/12/11 14:42:24;;;;;;;2.57;1.40;;;7.00;99.90;;;;;;4955996;29;20216;-70
2020/12/11 14:44:51;;;;;;;2.03;1.07;;;7.00;99.90;;;;;;4956220;29;20228;-70
2020/12/11 14:47:18;;;;;;;1.63;1.10;;;6.90;99.90;;;;;;4956326;29;20571;-70
2020/12/11 14:49:44;;;;;;;2.10;1.20;;;6.90;99.90;;;;;;4956126;28;20327;-70
2020/12/11 14:52:10;;;;;;;3.20;1.30;;;6.90;99.90;;;;;;4956094;29;20212;-69
2020/12/11 14:54:37;;;;;;;2.83;1.53;;;6.80;99.90;;;;;;4955864;28;20591;-75
2020/12/11 14:57:03;;;;;;;1.90;1.13;;;6.80;99.90;;;;;;4955827;29;20240;-69
2020/12/11 14:59:30;;;;;;;2.30;1.30;;;6.80;99.90;;;;;;4955837;29;20611;-70
2020/12/11 15:01:56;;;;;;;1.87;1.20;;;6.80;99.90;;;;;;4955551;28;20204;-70
2020/12/11 15:04:23;;;;;;;2.43;1.40;;;6.90;99.90;;;;;;4953147;28;20223;-69
2020/12/11 15:06:50;;;;;;;2.47;1.20;;;6.90;99.90;;;;;;4955489;29;20242;-69
2020/12/11 15:09:17;;;;;;;4.00;1.50;;;7.00;99.90;;;;;;4955115;28;20219;-69
2020/12/11 15:11:43;;;;;;;1.80;1.10;;;7.10;99.90;;;;;;4954983;28;20215;-68
2020/12/11 15:14:10;;;;;;;4.90;1.53;;;7.00;99.90;;;;;;4954722;28;20603;-71
2020/12/11 15:16:36;;;;;;;1.27;0.93;;;7.20;99.90;;;;;;4955157;28;20289;-74
2020/12/11 15:19:02;;;;;;;2.63;1.17;;;7.10;99.90;;;;;;4954944;29;20204;-71
2020/12/11 15:21:29;;;;;;;2.80;1.60;;;7.10;99.90;;;;;;4954756;28;20208;-74
2020/12/11 15:23:55;;;;;;;1.80;1.13;;;7.10;99.90;;;;;;4954680;28;20236;-72
2020/12/11 15:26:22;;;;;;;3.87;1.43;;;7.20;99.90;;;;;;4955419;29;20239;-75
2020/12/11 15:28:48;;;;;;;1.80;1.27;;;7.20;99.90;;;;;;4945605;28;20204;-70
2020/12/11 15:31:14;;;;;;;1.73;1.23;;;7.20;99.90;;;;;;4934016;29;20553;-69
2020/12/11 15:33:40;;;;;;;1.20;1.00;;;7.20;99.90;;;;;;4940191;28;20236;-75
2020/12/11 15:36:07;;;;;;;1.83;1.13;;;7.10;99.90;;;;;;4942961;29;20258;-73
2020/12/11 15:38:34;;;;;;;2.27;1.30;;;7.10;99.90;;;;;;4950070;28;20632;-74
2020/12/11 15:41:00;;;;;;;2.10;1.20;;;7.10;99.90;;;;;;4953597;29;20204;-72
2020/12/11 15:43:26;;;;;;;1.57;1.10;;;7.10;99.90;;;;;;4952971;28;20232;-72
2020/12/11 15:45:53;;;;;;;2.57;1.60;;;7.10;99.90;;;;;;4951421;29;20219;-73
2020/12/11 15:48:19;;;;;;;3.60;1.47;;;7.10;99.90;;;;;;4945314;28;20208;-74
2020/12/11 15:50:45;;;;;;;1.87;1.27;;;7.10;99.90;;;;;;4953002;29;20215;-72
2020/12/11 15:53:12;;;;;;;1.87;1.10;;;7.10;99.90;;;;;;4948653;28;20232;-74
2020/12/11 15:55:39;;;;;;;2.67;1.40;;;7.10;99.90;;;;;;4936948;29;20664;-72
2020/12/11 15:58:05;;;;;;;2.53;1.53;;;7.30;99.90;;;;;;4935506;28;20236;-72
2020/12/11 16:00:32;;;;;;;3.70;1.70;;;7.20;99.90;;;;;;4952613;28;20204;-72
2020/12/11 16:02:59;;;;;;;1.70;1.20;;;7.20;99.90;;;;;;4943771;28;20204;-75
2020/12/11 16:05:27;;;;;;;1.90;1.30;;;7.30;99.90;;;;;;4933982;28;20291;-73
2020/12/11 16:07:53;;;;;;;5.57;1.60;;;7.20;99.90;;;;;;4947359;29;20239;-71
2020/12/11 16:10:19;;;;;;;1.57;1.20;;;7.20;99.90;;;;;;4952514;29;20219;-73
2020/12/11 16:12:46;;;;;;;3.00;1.20;;;7.10;99.90;;;;;;4953147;28;20219;-78
2020/12/11 16:15:13;;;;;;;2.10;1.03;;;7.20;99.90;;;;;;4953212;28;20204;-73
2020/12/11 16:17:39;;;;;;;2.83;1.30;;;7.30;99.90;;;;;;4952755;28;20247;-71
2020/12/11 16:20:07;;;;;;;2.50;1.60;;;7.30;99.90;;;;;;4952724;28;20226;-73
2020/12/11 16:22:34;;;;;;;3.80;1.73;;;7.40;99.90;;;;;;4952847;28;20204;-74
2020/12/11 16:25:01;;;;;;;2.33;1.43;;;7.30;99.90;;;;;;4952360;28;21193;-74
2020/12/11 16:27:28;;;;;;;4.13;1.87;;;7.40;99.90;;;;;;4956630;23;20739;-72
2020/12/11 16:29:55;;;;;;;3.40;1.60;;;7.50;99.90;;;;;;4928975;29;20220;-71
2020/12/11 16:32:21;;;;;;;3.20;1.60;;;7.50;99.90;;;;;;4927360;29;20213;-72
2020/12/11 16:34:48;;;;;;;2.53;1.67;;;7.50;99.90;;;;;;4936898;29;20729;-74
2020/12/11 16:37:15;;;;;;;2.87;1.67;;;7.50;99.90;;;;;;4918601;29;20289;-82
2020/12/11 16:39:43;;;;;;;4.60;1.87;;;7.50;99.90;;;;;;4918068;29;20213;-81
2020/12/11 16:42:09;;;;;;;2.20;1.50;;;7.50;99.90;;;;;;4918360;29;20261;-76
2020/12/11 16:44:40;;;;;;;5.03;2.10;;;7.40;99.90;;;;;;4918064;29;20723;-73
2020/12/11 16:47:09;;;;;;;3.10;2.00;;;7.50;99.90;;;;;;4918364;29;20681;-73
2020/12/11 16:49:37;;;;;;;2.50;1.50;;;7.50;99.90;;;;;;4933628;29;20584;-77
2020/12/11 16:52:04;;;;;;;3.83;1.50;;;7.60;99.90;;;;;;4937091;29;20562;-72
2020/12/11 16:54:30;;;;;;;3.10;1.67;;;7.50;99.90;;;;;;4920508;29;20230;-76
2020/12/11 16:56:56;;;;;;;3.07;1.63;;;7.50;99.90;;;;;;4923114;29;20261;-75
2020/12/11 16:59:30;;;;;;;2.53;1.87;;;7.60;99.90;;;;;;4927908;29;20304;-76
2020/12/11 17:01:58;;;;;;;5.07;1.80;;;7.60;99.90;;;;;;4925798;29;20350;-77
2020/12/11 17:07:08;;;;;;;3.37;2.03;;;7.60;99.90;;;;;;4894251;29;20225;-78
2020/12/11 17:09:38;;;;;;;3.43;1.90;;;7.60;99.90;;;;;;4912548;29;20248;-79
2020/12/11 17:12:05;;;;;;;2.30;1.70;;;7.60;99.90;;;;;;4917423;29;20217;-77
2020/12/11 17:14:31;;;;;;;2.43;1.67;;;7.60;99.90;;;;;;4917575;29;20244;-73
2020/12/11 17:17:02;;;;;;;3.10;1.80;;;7.50;99.90;;;;;;4917906;29;20249;-76
2020/12/11 17:19:30;;;;;;;2.17;1.70;;;7.50;99.90;;;;;;4917275;29;20224;-71
2020/12/11 17:22:01;;;;;;;3.07;2.10;;;7.50;99.90;;;;;;4917159;29;20213;-75
2020/12/11 17:24:27;;;;;;;3.47;2.03;;;7.50;99.90;;;;;;4917598;29;20230;-72
2020/12/11 17:26:54;;;;;;;3.90;2.10;;;7.60;99.90;;;;;;4917618;29;20229;-70
2020/12/11 17:29:21;;;;;;;2.93;2.03;;;7.60;99.90;;;;;;4917098;29;20657;-84
2020/12/11 17:31:58;;;;;;;3.77;1.90;;;7.70;99.90;;;;;;4917196;29;20213;-69
2020/12/11 17:34:28;;;;;;;2.47;2.03;;;7.70;99.90;;;;;;4917350;29;20293;-68
2020/12/11 17:36:57;;;;;;;4.03;2.37;;;7.60;99.90;;;;;;4917439;29;20221;-69
2020/12/11 17:39:24;;;;;;;4.13;2.33;;;7.70;99.90;;;;;;4916874;29;20217;-77
2020/12/11 17:41:53;;;;;;;2.80;1.80;;;7.70;99.90;;;;;;4917170;29;20300;-70
2020/12/11 17:44:21;;;;;;;5.57;2.17;;;7.60;99.90;;;;;;4916111;29;20236;-71
2020/12/11 17:46:47;;;;;;;3.57;2.30;;;7.70;99.90;;;;;;4916065;29;20261;-69
2020/12/11 17:49:14;;;;;;;3.67;2.50;;;7.70;99.90;;;;;;4916697;29;20692;-69
2020/12/11 17:51:41;;;;;;;8.50;5.13;;;7.70;99.90;;;;;;4918141;29;20228;-74
2020/12/11 17:54:08;;;;;;;5.50;2.00;;;7.80;99.90;;;;;;4916767;29;20237;-71
2020/12/11 17:56:35;;;;;;;5.37;2.60;;;7.70;99.90;;;;;;4927047;29;20657;-72
2020/12/11 17:59:02;;;;;;;4.17;2.43;;;7.70;99.90;;;;;;4921168;29;20284;-77
2020/12/11 18:01:28;;;;;;;8.27;2.63;;;7.70;99.90;;;;;;4917208;29;20710;-71
2020/12/11 18:03:55;;;;;;;5.87;2.33;;;7.70;99.90;;;;;;4917234;29;20716;-71
2020/12/11 18:06:28;;;;;;;3.83;2.23;;;7.70;99.90;;;;;;4917550;29;20236;-71
2020/12/11 18:08:55;;;;;;;5.13;3.00;;;7.70;99.90;;;;;;4918094;29;20210;-71
2020/12/11 18:11:25;;;;;;;5.53;2.63;;;7.70;99.90;;;;;;4918527;29;20246;-76
2020/12/11 18:13:51;;;;;;;4.13;2.40;;;7.80;99.90;;;;;;4917877;29;20233;-71
2020/12/11 18:16:18;;;;;;;3.43;2.37;;;7.80;99.90;;;;;;4917956;29;20213;-76
2020/12/11 18:18:44;;;;;;;5.27;2.73;;;7.80;99.90;;;;;;4918325;29;20233;-71
2020/12/11 18:21:10;;;;;;;6.67;2.20;;;7.70;99.90;;;;;;4918376;29;20244;-72
2020/12/11 18:23:36;;;;;;;6.67;2.90;;;7.70;99.90;;;;;;4917254;29;20716;-73
2020/12/11 18:26:03;;;;;;;4.27;2.63;;;7.80;99.90;;;;;;4918383;29;20212;-72
2020/12/11 18:28:31;;;;;;;3.83;2.43;;;7.90;99.90;;;;;;4917169;29;20214;-73
2020/12/11 18:30:58;;;;;;;5.73;3.10;;;7.90;99.90;;;;;;4915784;29;20209;-71
2020/12/11 18:33:24;;;;;;;3.87;2.00;;;7.90;99.90;;;;;;4917470;29;20240;-73
2020/12/11 18:35:50;;;;;;;8.17;3.00;;;7.90;99.90;;;;;;4918099;29;20237;-70
2020/12/11 18:38:16;;;;;;;6.13;2.67;;;7.90;99.90;;;;;;4917827;29;20233;-71
2020/12/11 18:40:42;;;;;;;4.17;2.30;;;8.00;99.90;;;;;;4917558;29;20213;-73
2020/12/11 18:43:09;;;;;;;8.10;2.53;;;7.90;99.90;;;;;;4917636;29;20225;-71
2020/12/11 18:45:36;;;;;;;6.17;2.63;;;7.90;99.90;;;;;;4917608;29;20236;-70
2020/12/11 18:48:02;;;;;;;7.80;3.10;;;7.90;99.90;;;;;;4917274;29;20569;-72
2020/12/11 18:50:28;;;;;;;6.37;3.03;;;8.00;99.90;;;;;;4917416;29;20578;-71
2020/12/11 18:52:55;;;;;;;5.00;3.23;;;8.00;99.90;;;;;;4917400;29;20210;-72
2020/12/11 18:55:25;;;;;;;3.77;2.47;;;8.10;99.90;;;;;;4916626;29;20220;-70
2020/12/11 18:57:51;;;;;;;5.33;2.40;;;8.20;99.90;;;;;;4916606;29;20237;-70
2020/12/11 19:00:17;;;;;;;6.20;2.47;;;8.20;99.90;;;;;;4916637;29;20220;-72
2020/12/11 19:02:45;;;;;;;4.07;2.13;;;8.20;99.90;;;;;;4916741;29;20221;-72
2020/12/11 19:05:11;;;;;;;3.70;2.70;;;8.20;99.90;;;;;;4916007;29;20213;-72
2020/12/11 19:07:38;;;;;;;2.77;1.90;;;8.20;99.90;;;;;;4917542;29;20257;-71
2020/12/11 19:10:05;;;;;;;4.93;2.70;;;8.30;99.90;;;;;;4917827;29;20224;-73
2020/12/11 19:12:31;;;;;;;4.87;2.57;;;8.30;99.90;;;;;;4919611;29;20457;-71
2020/12/11 19:14:58;;;;;;;4.53;2.47;;;8.40;99.90;;;;;;4926250;29;20233;-72
2020/12/11 19:17:24;;;;;;;3.80;2.13;;;8.30;99.90;;;;;;4930525;29;20232;-72
2020/12/11 19:19:51;;;;;;;3.57;2.47;;;8.40;99.90;;;;;;4935954;29;20205;-71
2020/12/11 19:22:17;;;;;;;5.83;2.60;;;8.40;99.90;;;;;;4936126;29;20231;-73
2020/12/11 19:24:43;;;;;;;3.90;2.00;;;8.40;99.90;;;;;;4916776;29;20225;-73
2020/12/11 19:27:10;;;;;;;3.30;2.30;;;8.20;99.90;;;;;;4916769;29;20240;-71
2020/12/11 19:29:36;;;;;;;2.73;2.07;;;8.20;99.90;;;;;;4916815;29;20202;-75
2020/12/11 19:32:03;;;;;;;4.93;2.30;;;8.20;99.90;;;;;;4923953;29;20214;-72
2020/12/11 19:34:30;;;;;;;7.20;2.53;;;8.20;99.90;;;;;;4932997;29;20231;-74
2020/12/11 19:36:57;;;;;;;4.27;2.30;;;8.20;99.90;;;;;;4935805;29;20296;-73
2020/12/11 19:39:23;;;;;;;3.87;2.17;;;8.20;99.90;;;;;;4935664;29;20205;-75
2020/12/11 19:41:50;;;;;;;3.83;2.30;;;8.10;99.90;;;;;;4918510;29;20221;-72
2020/12/11 19:44:17;;;;;;;5.90;2.33;;;8.10;99.90;;;;;;4916077;29;20727;-73
2020/12/11 19:46:43;;;;;;;3.80;2.20;;;8.10;99.90;;;;;;4916580;29;20296;-74
2020/12/11 19:49:12;;;;;;;4.30;2.37;;;8.20;99.90;;;;;;4916125;29;20568;-73
2020/12/11 19:51:38;;;;;;;3.83;2.40;;;8.20;99.90;;;;;;4915955;29;20213;-75
2020/12/11 19:54:05;;;;;;;4.80;2.60;;;8.20;99.90;;;;;;4916331;29;20233;-74
2020/12/11 19:56:31;;;;;;;3.40;2.40;;;8.20;99.90;;;;;;4916207;29;20412;-73
2020/12/11 19:58:57;;;;;;;6.97;2.73;;;8.20;99.90;;;;;;4915383;29;20233;-72
2020/12/11 20:01:24;;;;;;;3.37;2.20;;;8.30;99.90;;;;;;4915185;29;20220;-73
2020/12/11 20:03:50;;;;;;;8.40;2.83;;;8.40;99.90;;;;;;4916557;29;20236;-73
2020/12/11 20:06:23;;;;;;;3.77;2.30;;;8.50;99.90;;;;;;4916670;29;20273;-73
2020/12/11 20:11:34;;;;;;;4.23;2.40;;;8.40;99.90;;;;;;4918388;29;20695;-71
2020/12/11 20:14:00;;;;;;;4.57;2.90;;;8.30;99.90;;;;;;4916305;29;20233;-72
2020/12/11 20:16:27;;;;;;;4.37;2.67;;;8.40;99.90;;;;;;4916851;29;20213;-72
2020/12/11 20:18:53;;;;;;;5.20;3.07;;;8.50;99.90;;;;;;4934747;29;20240;-72
2020/12/11 20:21:19;;;;;;;5.63;3.33;;;8.50;99.90;;;;;;4935366;29;20213;-72
2020/12/11 20:23:45;;;;;;;4.13;2.40;;;8.40;99.90;;;;;;4935125;29;20224;-72
2020/12/11 20:26:11;;;;;;;5.27;2.60;;;8.40;99.90;;;;;;4934984;29;20213;-72
2020/12/11 20:28:38;;;;;;;5.87;2.07;;;8.50;99.90;;;;;;4935250;29;20213;-72
2020/12/11 20:31:05;;;;;;;4.57;2.10;;;8.60;99.90;;;;;;4935330;29;20672;-72
2020/12/11 20:33:31;;;;;;;2.90;2.10;;;8.60;99.90;;;;;;4922552;29;20225;-72
2020/12/11 20:35:57;;;;;;;3.90;2.17;;;8.60;99.90;;;;;;4916530;29;20217;-72
2020/12/11 20:38:23;;;;;;;5.23;2.60;;;8.60;99.90;;;;;;4915995;29;20237;-73
2020/12/11 20:40:49;;;;;;;4.13;2.50;;;8.60;99.90;;;;;;4916264;29;20217;-71
2020/12/11 20:43:16;;;;;;;3.57;2.47;;;8.70;99.90;;;;;;4915348;29;20585;-71
2020/12/11 20:45:43;;;;;;;3.87;2.93;;;8.70;99.90;;;;;;4925762;29;20568;-73
2020/12/11 20:48:09;;;;;;;5.30;2.60;;;8.70;99.90;;;;;;4926202;29;20201;-72
2020/12/11 20:50:36;;;;;;;4.90;2.63;;;8.60;99.90;;;;;;4916242;29;20210;-73
2020/12/11 20:53:02;;;;;;;4.67;2.37;;;8.70;99.90;;;;;;4931629;29;20211;-72
2020/12/11 20:55:28;;;;;;;3.97;2.20;;;8.80;99.90;;;;;;4916126;29;20198;-73
2020/12/11 20:57:54;;;;;;;4.53;2.53;;;8.80;99.90;;;;;;4921274;29;20233;-73
2020/12/11 21:00:21;;;;;;;4.10;2.73;;;8.80;99.90;;;;;;4924032;29;20198;-70
2020/12/11 21:02:48;;;;;;;3.57;2.50;;;8.80;99.90;;;;;;4932107;29;20208;-73
2020/12/11 21:05:14;;;;;;;3.30;2.40;;;8.90;99.90;;;;;;4934820;29;20212;-71
2020/12/11 21:07:40;;;;;;;4.43;2.40;;;8.90;99.90;;;;;;4935120;29;20224;-72
2020/12/11 21:10:11;;;;;;;4.70;2.77;;;8.90;99.90;;;;;;4935193;29;20223;-73
2020/12/11 21:12:37;;;;;;;4.97;2.67;;;8.80;99.90;;;;;;4935130;29;20580;-73
2020/12/11 21:15:04;;;;;;;4.87;2.63;;;8.90;99.90;;;;;;4934738;29;20588;-72
2020/12/11 21:17:30;;;;;;;4.50;2.60;;;9.00;99.90;;;;;;4935023;29;20319;-73
2020/12/11 21:19:57;;;;;;;4.07;2.40;;;9.00;99.90;;;;;;4936306;29;20668;-72
2020/12/11 21:22:29;;;;;;;4.30;2.47;;;9.00;99.90;;;;;;4938401;29;20220;-73
2020/12/11 21:24:55;;;;;;;4.33;2.30;;;8.90;99.90;;;;;;4938663;29;20229;-73
2020/12/11 21:27:21;;;;;;;3.47;2.50;;;8.90;99.90;;;;;;4937852;29;20216;-73
2020/12/11 21:29:47;;;;;;;3.83;2.67;;;8.80;99.90;;;;;;4937975;29;20208;-73
2020/12/11 21:32:19;;;;;;;3.67;2.23;;;8.70;99.90;;;;;;4938178;29;20209;-72
2020/12/11 21:37:31;;;;;;;3.97;2.37;;;8.70;99.90;;;;;;4937988;29;20228;-73
2020/12/11 21:39:57;;;;;;;5.07;3.00;;;8.60;99.90;;;;;;4938165;29;20296;-71
2020/12/11 21:42:23;;;;;;;4.67;2.77;;;8.70;99.90;;;;;;4937939;29;20541;-73
2020/12/11 21:44:49;;;;;;;6.90;2.83;;;8.70;99.90;;;;;;4937886;29;20235;-71
2020/12/11 21:47:16;;;;;;;4.63;2.50;;;8.70;99.90;;;;;;4937882;29;20245;-73
2020/12/11 21:49:42;;;;;;;5.77;2.70;;;8.60;99.90;;;;;;4938143;29;20213;-72
2020/12/11 21:52:08;;;;;;;4.50;2.80;;;8.60;99.90;;;;;;4927537;29;20213;-76
2020/12/11 21:54:36;;;;;;;5.67;2.70;;;8.50;99.90;;;;;;4927315;29;20233;-79
2020/12/11 21:57:03;;;;;;;5.93;2.30;;;8.50;99.90;;;;;;4924593;29;20205;-78
2020/12/11 21:59:29;;;;;;;7.10;2.60;;;8.40;99.90;;;;;;4925692;29;20345;-77
2020/12/11 22:01:55;;;;;;;4.33;2.50;;;8.40;99.90;;;;;;4924753;29;20237;-76
2020/12/11 22:04:22;;;;;;;6.43;2.53;;;8.40;99.90;;;;;;4937444;29;20228;-79
2020/12/11 22:06:48;;;;;;;3.77;2.50;;;8.30;99.90;;;;;;4928653;29;20573;-82
2020/12/11 22:09:14;;;;;;;6.50;2.93;;;8.30;99.90;;;;;;4925293;29;20224;-75
2020/12/11 22:11:46;;;;;;;6.17;2.93;;;8.30;99.90;;;;;;4925021;29;20665;-79
2020/12/11 22:14:12;;;;;;;4.63;2.40;;;8.20;99.90;;;;;;4926870;29;20239;-76
